sensor_id;sensor_type;location;lat;lon;timestamp;P1;durP1;ratioP1;P2;durP2;ratioP2
18947;SDS011;9607;51.600;7.558;2024-03-02T00:01:31;2.65;;;2.17;;
18947;SDS011;9607;51.600;7.558;2024-03-02T00:03:58;3.88;;;2.20;;
18947;SDS011;9607;51.600;7.558;2024-03-02T00:06:25;5.22;;;2.33;;
18947;SDS011;9607;51.600;7.558;2024-03-02T00:08:54;3.08;;;2.20;;
18947;SDS011;9607;51.600;7.558;2024-03-02T00:11:23;2.83;;;2.40;;
18947;SDS011;9607;51.600;7.558;2024-03-02T00:13:52;2.05;;;1.83;;
18947;SDS011;9607;51.600;7.558;2024-03-02T00:16:21;2.50;;;2.00;;
18947;SDS011;9607;51.600;7.558;2024-03-02T00:18:49;1.85;;;1.70;;
18947;SDS011;9607;51.600;7.558;2024-03-02T00:21:16;2.60;;;1.90;;
18947;SDS011;9607;51.600;7.558;2024-03-02T00:23:45;3.95;;;1.77;;
18947;SDS011;9607;51.600;7.558;2024-03-02T00:26:12;2.28;;;2.00;;
18947;SDS011;9607;51.600;7.558;2024-03-02T00:28:39;2.10;;;1.90;;
18947;SDS011;9607;51.600;7.558;2024-03-02T00:31:09;2.20;;;2.00;;
18947;SDS011;9607;51.600;7.558;2024-03-02T00:33:40;2.13;;;1.92;;
18947;SDS011;9607;51.600;7.558;2024-03-02T00:36:08;2.13;;;1.83;;
18947;SDS011;9607;51.600;7.558;2024-03-02T00:38:40;2.38;;;1.95;;
18947;SDS011;9607;51.600;7.558;2024-03-02T00:41:15;2.25;;;1.83;;
18947;SDS011;9607;51.600;7.558;2024-03-02T00:43:45;3.35;;;2.00;;
18947;SDS011;9607;51.600;7.558;2024-03-02T00:46:16;1.90;;;1.70;;
18947;SDS011;9607;51.600;7.558;2024-03-02T00:48:55;1.70;;;1.60;;
18947;SDS011;9607;51.600;7.558;2024-03-02T00:51:24;2.42;;;1.90;;
18947;SDS011;9607;51.600;7.558;2024-03-02T00:53:53;2.67;;;1.70;;
18947;SDS011;9607;51.600;7.558;2024-03-02T00:56:22;2.38;;;1.65;;
18947;SDS011;9607;51.600;7.558;2024-03-02T00:58:50;1.95;;;1.75;;
18947;SDS011;9607;51.600;7.558;2024-03-02T01:01:17;2.08;;;1.60;;
18947;SDS011;9607;51.600;7.558;2024-03-02T01:03:44;2.28;;;1.80;;
18947;SDS011;9607;51.600;7.558;2024-03-02T01:06:13;2.78;;;2.13;;
18947;SDS011;9607;51.600;7.558;2024-03-02T01:08:40;2.35;;;1.42;;
18947;SDS011;9607;51.600;7.558;2024-03-02T01:11:08;1.67;;;1.50;;
18947;SDS011;9607;51.600;7.558;2024-03-02T01:13:35;2.08;;;1.50;;
18947;SDS011;9607;51.600;7.558;2024-03-02T01:16:02;2.22;;;1.60;;
18947;SDS011;9607;51.600;7.558;2024-03-02T01:18:29;1.67;;;1.38;;
18947;SDS011;9607;51.600;7.558;2024-03-02T01:20:57;2.47;;;1.25;;
18947;SDS011;9607;51.600;7.558;2024-03-02T01:23:25;2.38;;;1.02;;
18947;SDS011;9607;51.600;7.558;2024-03-02T01:25:52;1.75;;;0.90;;
18947;SDS011;9607;51.600;7.558;2024-03-02T01:28:19;2.97;;;1.35;;
18947;SDS011;9607;51.600;7.558;2024-03-02T01:30:47;1.42;;;1.27;;
18947;SDS011;9607;51.600;7.558;2024-03-02T01:33:14;2.28;;;1.00;;
18947;SDS011;9607;51.600;7.558;2024-03-02T01:35:40;3.50;;;1.50;;
18947;SDS011;9607;51.600;7.558;2024-03-02T01:38:07;1.42;;;1.23;;
18947;SDS011;9607;51.600;7.558;2024-03-02T01:40:35;3.08;;;1.48;;
18947;SDS011;9607;51.600;7.558;2024-03-02T01:43:03;2.42;;;1.30;;
18947;SDS011;9607;51.600;7.558;2024-03-02T01:45:31;1.40;;;1.30;;
18947;SDS011;9607;51.600;7.558;2024-03-02T01:47:58;1.60;;;1.17;;
18947;SDS011;9607;51.600;7.558;2024-03-02T01:50:26;1.98;;;1.10;;
18947;SDS011;9607;51.600;7.558;2024-03-02T01:52:54;1.70;;;1.33;;
18947;SDS011;9607;51.600;7.558;2024-03-02T01:55:22;3.20;;;1.33;;
18947;SDS011;9607;51.600;7.558;2024-03-02T01:57:50;3.33;;;1.25;;
18947;SDS011;9607;51.600;7.558;2024-03-02T02:00:19;1.45;;;1.10;;
18947;SDS011;9607;51.600;7.558;2024-03-02T02:02:46;2.05;;;1.00;;
18947;SDS011;9607;51.600;7.558;2024-03-02T02:05:14;1.75;;;1.15;;
18947;SDS011;9607;51.600;7.558;2024-03-02T02:07:42;1.10;;;1.00;;
18947;SDS011;9607;51.600;7.558;2024-03-02T02:10:09;1.88;;;1.23;;
18947;SDS011;9607;51.600;7.558;2024-03-02T02:12:36;1.92;;;0.95;;
18947;SDS011;9607;51.600;7.558;2024-03-02T02:15:07;2.30;;;1.30;;
18947;SDS011;9607;51.600;7.558;2024-03-02T02:17:51;2.70;;;1.40;;
18947;SDS011;9607;51.600;7.558;2024-03-02T02:20:18;1.40;;;1.00;;
18947;SDS011;9607;51.600;7.558;2024-03-02T02:22:55;2.63;;;1.30;;
18947;SDS011;9607;51.600;7.558;2024-03-02T02:25:23;1.02;;;0.90;;
18947;SDS011;9607;51.600;7.558;2024-03-02T02:27:50;1.33;;;1.00;;
18947;SDS011;9607;51.600;7.558;2024-03-02T02:30:20;1.55;;;1.05;;
18947;SDS011;9607;51.600;7.558;2024-03-02T02:32:48;1.23;;;1.10;;
18947;SDS011;9607;51.600;7.558;2024-03-02T02:35:15;1.55;;;1.13;;
18947;SDS011;9607;51.600;7.558;2024-03-02T02:37:42;2.22;;;1.05;;
18947;SDS011;9607;51.600;7.558;2024-03-02T02:40:11;0.90;;;0.80;;
18947;SDS011;9607;51.600;7.558;2024-03-02T02:42:39;1.83;;;1.15;;
18947;SDS011;9607;51.600;7.558;2024-03-02T02:45:07;1.42;;;0.93;;
18947;SDS011;9607;51.600;7.558;2024-03-02T02:47:33;3.60;;;1.42;;
18947;SDS011;9607;51.600;7.558;2024-03-02T02:50:01;1.27;;;1.00;;
18947;SDS011;9607;51.600;7.558;2024-03-02T02:52:31;2.28;;;1.20;;
18947;SDS011;9607;51.600;7.558;2024-03-02T02:55:00;3.30;;;1.10;;
18947;SDS011;9607;51.600;7.558;2024-03-02T02:57:29;1.85;;;1.20;;
18947;SDS011;9607;51.600;7.558;2024-03-02T03:00:00;1.33;;;0.88;;
18947;SDS011;9607;51.600;7.558;2024-03-02T03:02:29;0.88;;;0.77;;
18947;SDS011;9607;51.600;7.558;2024-03-02T03:04:56;1.40;;;1.10;;
18947;SDS011;9607;51.600;7.558;2024-03-02T03:07:22;0.95;;;0.70;;
18947;SDS011;9607;51.600;7.558;2024-03-02T03:09:49;1.00;;;0.75;;
18947;SDS011;9607;51.600;7.558;2024-03-02T03:12:16;1.30;;;0.93;;
18947;SDS011;9607;51.600;7.558;2024-03-02T03:14:46;1.88;;;1.08;;
18947;SDS011;9607;51.600;7.558;2024-03-02T03:17:13;2.10;;;1.13;;
18947;SDS011;9607;51.600;7.558;2024-03-02T03:19:40;1.80;;;0.70;;
18947;SDS011;9607;51.600;7.558;2024-03-02T03:22:07;0.80;;;0.70;;
18947;SDS011;9607;51.600;7.558;2024-03-02T03:24:33;1.75;;;0.90;;
18947;SDS011;9607;51.600;7.558;2024-03-02T03:27:00;1.50;;;1.08;;
18947;SDS011;9607;51.600;7.558;2024-03-02T03:29:27;2.70;;;1.17;;
18947;SDS011;9607;51.600;7.558;2024-03-02T03:31:56;3.50;;;1.10;;
18947;SDS011;9607;51.600;7.558;2024-03-02T03:34:23;2.15;;;1.00;;
18947;SDS011;9607;51.600;7.558;2024-03-02T03:36:49;2.30;;;1.17;;
18947;SDS011;9607;51.600;7.558;2024-03-02T03:39:16;0.85;;;0.85;;
18947;SDS011;9607;51.600;7.558;2024-03-02T03:41:43;2.42;;;1.10;;
18947;SDS011;9607;51.600;7.558;2024-03-02T03:44:10;1.33;;;0.80;;
18947;SDS011;9607;51.600;7.558;2024-03-02T03:46:37;2.70;;;1.02;;
18947;SDS011;9607;51.600;7.558;2024-03-02T03:49:05;1.02;;;0.93;;
18947;SDS011;9607;51.600;7.558;2024-03-02T03:51:32;1.27;;;0.80;;
18947;SDS011;9607;51.600;7.558;2024-03-02T03:54:00;2.50;;;0.73;;
18947;SDS011;9607;51.600;7.558;2024-03-02T03:56:27;1.50;;;1.00;;
18947;SDS011;9607;51.600;7.558;2024-03-02T03:58:54;1.20;;;1.00;;
18947;SDS011;9607;51.600;7.558;2024-03-02T04:01:21;2.35;;;1.33;;
18947;SDS011;9607;51.600;7.558;2024-03-02T04:03:48;1.70;;;0.88;;
18947;SDS011;9607;51.600;7.558;2024-03-02T04:06:16;1.00;;;0.90;;
18947;SDS011;9607;51.600;7.558;2024-03-02T04:08:43;1.45;;;0.98;;
18947;SDS011;9607;51.600;7.558;2024-03-02T04:11:10;0.85;;;0.75;;
18947;SDS011;9607;51.600;7.558;2024-03-02T04:13:37;1.45;;;0.75;;
18947;SDS011;9607;51.600;7.558;2024-03-02T04:16:04;2.63;;;1.15;;
18947;SDS011;9607;51.600;7.558;2024-03-02T04:18:31;1.27;;;0.90;;
18947;SDS011;9607;51.600;7.558;2024-03-02T04:20:58;1.90;;;1.10;;
18947;SDS011;9607;51.600;7.558;2024-03-02T04:23:26;1.83;;;1.05;;
18947;SDS011;9607;51.600;7.558;2024-03-02T04:25:53;1.52;;;1.10;;
18947;SDS011;9607;51.600;7.558;2024-03-02T04:28:22;1.50;;;1.00;;
18947;SDS011;9607;51.600;7.558;2024-03-02T04:30:49;1.85;;;1.30;;
18947;SDS011;9607;51.600;7.558;2024-03-02T04:33:16;1.25;;;0.80;;
18947;SDS011;9607;51.600;7.558;2024-03-02T04:35:43;0.85;;;0.85;;
18947;SDS011;9607;51.600;7.558;2024-03-02T04:38:11;3.05;;;0.95;;
18947;SDS011;9607;51.600;7.558;2024-03-02T04:40:39;1.30;;;0.98;;
18947;SDS011;9607;51.600;7.558;2024-03-02T04:43:06;1.63;;;1.00;;
18947;SDS011;9607;51.600;7.558;2024-03-02T04:45:34;2.00;;;0.90;;
18947;SDS011;9607;51.600;7.558;2024-03-02T04:48:04;1.00;;;0.90;;
18947;SDS011;9607;51.600;7.558;2024-03-02T04:50:31;1.73;;;0.93;;
18947;SDS011;9607;51.600;7.558;2024-03-02T04:52:58;1.20;;;0.80;;
18947;SDS011;9607;51.600;7.558;2024-03-02T04:55:25;1.75;;;1.00;;
18947;SDS011;9607;51.600;7.558;2024-03-02T04:58:17;1.10;;;0.90;;
18947;SDS011;9607;51.600;7.558;2024-03-02T05:00:43;3.03;;;1.30;;
18947;SDS011;9607;51.600;7.558;2024-03-02T05:03:11;1.95;;;1.10;;
18947;SDS011;9607;51.600;7.558;2024-03-02T05:05:38;2.47;;;1.08;;
18947;SDS011;9607;51.600;7.558;2024-03-02T05:08:05;1.60;;;1.10;;
18947;SDS011;9607;51.600;7.558;2024-03-02T05:10:32;1.40;;;0.85;;
18947;SDS011;9607;51.600;7.558;2024-03-02T05:13:01;1.17;;;0.80;;
18947;SDS011;9607;51.600;7.558;2024-03-02T05:15:29;2.20;;;1.13;;
18947;SDS011;9607;51.600;7.558;2024-03-02T05:17:57;1.40;;;1.02;;
18947;SDS011;9607;51.600;7.558;2024-03-02T05:20:27;1.35;;;1.02;;
18947;SDS011;9607;51.600;7.558;2024-03-02T05:22:55;3.90;;;1.20;;
18947;SDS011;9607;51.600;7.558;2024-03-02T05:25:24;1.77;;;1.10;;
18947;SDS011;9607;51.600;7.558;2024-03-02T05:27:51;3.25;;;1.33;;
18947;SDS011;9607;51.600;7.558;2024-03-02T05:30:17;1.27;;;1.17;;
18947;SDS011;9607;51.600;7.558;2024-03-02T05:32:46;1.70;;;1.10;;
18947;SDS011;9607;51.600;7.558;2024-03-02T05:35:13;2.28;;;1.20;;
18947;SDS011;9607;51.600;7.558;2024-03-02T05:37:40;2.28;;;1.50;;
18947;SDS011;9607;51.600;7.558;2024-03-02T05:40:07;2.13;;;1.20;;
18947;SDS011;9607;51.600;7.558;2024-03-02T05:42:36;2.22;;;1.35;;
18947;SDS011;9607;51.600;7.558;2024-03-02T05:45:03;2.33;;;1.40;;
18947;SDS011;9607;51.600;7.558;2024-03-02T05:47:31;1.42;;;1.20;;
18947;SDS011;9607;51.600;7.558;2024-03-02T05:49:59;1.40;;;1.13;;
18947;SDS011;9607;51.600;7.558;2024-03-02T05:52:26;2.33;;;1.27;;
18947;SDS011;9607;51.600;7.558;2024-03-02T05:54:53;1.50;;;1.00;;
18947;SDS011;9607;51.600;7.558;2024-03-02T05:57:21;2.25;;;1.40;;
18947;SDS011;9607;51.600;7.558;2024-03-02T06:00:11;3.40;;;1.77;;
18947;SDS011;9607;51.600;7.558;2024-03-02T06:02:41;2.25;;;1.33;;
18947;SDS011;9607;51.600;7.558;2024-03-02T06:05:10;1.90;;;1.30;;
18947;SDS011;9607;51.600;7.558;2024-03-02T06:07:37;2.05;;;1.10;;
18947;SDS011;9607;51.600;7.558;2024-03-02T06:10:04;2.83;;;1.38;;
18947;SDS011;9607;51.600;7.558;2024-03-02T06:12:32;1.85;;;1.15;;
18947;SDS011;9607;51.600;7.558;2024-03-02T06:15:00;0.95;;;0.88;;
18947;SDS011;9607;51.600;7.558;2024-03-02T06:17:28;0.85;;;0.82;;
18947;SDS011;9607;51.600;7.558;2024-03-02T06:19:55;1.55;;;1.20;;
18947;SDS011;9607;51.600;7.558;2024-03-02T06:22:27;2.35;;;1.58;;
18947;SDS011;9607;51.600;7.558;2024-03-02T06:24:54;1.17;;;1.08;;
18947;SDS011;9607;51.600;7.558;2024-03-02T06:27:21;2.38;;;1.42;;
18947;SDS011;9607;51.600;7.558;2024-03-02T06:29:48;1.98;;;1.40;;
18947;SDS011;9607;51.600;7.558;2024-03-02T06:32:16;1.80;;;1.27;;
18947;SDS011;9607;51.600;7.558;2024-03-02T06:34:43;3.00;;;1.45;;
18947;SDS011;9607;51.600;7.558;2024-03-02T06:37:10;1.30;;;1.10;;
18947;SDS011;9607;51.600;7.558;2024-03-02T06:39:39;2.55;;;1.55;;
18947;SDS011;9607;51.600;7.558;2024-03-02T06:42:06;1.60;;;1.20;;
18947;SDS011;9607;51.600;7.558;2024-03-02T06:44:33;1.10;;;0.95;;
18947;SDS011;9607;51.600;7.558;2024-03-02T06:47:00;1.20;;;1.10;;
18947;SDS011;9607;51.600;7.558;2024-03-02T06:49:27;1.58;;;1.10;;
18947;SDS011;9607;51.600;7.558;2024-03-02T06:51:54;1.33;;;1.23;;
18947;SDS011;9607;51.600;7.558;2024-03-02T06:54:21;1.20;;;1.10;;
18947;SDS011;9607;51.600;7.558;2024-03-02T06:56:51;1.70;;;1.25;;
18947;SDS011;9607;51.600;7.558;2024-03-02T06:59:18;2.88;;;1.35;;
18947;SDS011;9607;51.600;7.558;2024-03-02T07:01:45;1.20;;;1.10;;
18947;SDS011;9607;51.600;7.558;2024-03-02T07:04:12;1.80;;;1.10;;
18947;SDS011;9607;51.600;7.558;2024-03-02T07:06:38;1.95;;;1.65;;
18947;SDS011;9607;51.600;7.558;2024-03-02T07:09:05;1.85;;;1.55;;
18947;SDS011;9607;51.600;7.558;2024-03-02T07:11:35;1.38;;;1.20;;
18947;SDS011;9607;51.600;7.558;2024-03-02T07:14:04;1.40;;;1.30;;
18947;SDS011;9607;51.600;7.558;2024-03-02T07:16:31;2.30;;;1.40;;
18947;SDS011;9607;51.600;7.558;2024-03-02T07:18:59;2.40;;;1.45;;
18947;SDS011;9607;51.600;7.558;2024-03-02T07:21:27;1.80;;;1.60;;
18947;SDS011;9607;51.600;7.558;2024-03-02T07:23:54;1.75;;;1.50;;
18947;SDS011;9607;51.600;7.558;2024-03-02T07:26:21;1.55;;;1.20;;
18947;SDS011;9607;51.600;7.558;2024-03-02T07:28:48;2.47;;;1.23;;
18947;SDS011;9607;51.600;7.558;2024-03-02T07:31:16;1.80;;;1.20;;
18947;SDS011;9607;51.600;7.558;2024-03-02T07:33:43;1.98;;;1.33;;
18947;SDS011;9607;51.600;7.558;2024-03-02T07:36:12;1.98;;;1.45;;
18947;SDS011;9607;51.600;7.558;2024-03-02T07:38:40;1.70;;;1.60;;
18947;SDS011;9607;51.600;7.558;2024-03-02T07:41:07;2.10;;;1.50;;
18947;SDS011;9607;51.600;7.558;2024-03-02T07:43:34;2.17;;;1.83;;
18947;SDS011;9607;51.600;7.558;2024-03-02T07:46:01;2.03;;;1.73;;
18947;SDS011;9607;51.600;7.558;2024-03-02T07:48:30;2.55;;;1.50;;
18947;SDS011;9607;51.600;7.558;2024-03-02T07:50:57;2.63;;;1.80;;
18947;SDS011;9607;51.600;7.558;2024-03-02T07:53:25;2.40;;;1.90;;
18947;SDS011;9607;51.600;7.558;2024-03-02T07:55:52;1.95;;;1.75;;
18947;SDS011;9607;51.600;7.558;2024-03-02T07:58:19;1.90;;;1.40;;
18947;SDS011;9607;51.600;7.558;2024-03-02T08:00:46;3.00;;;2.30;;
18947;SDS011;9607;51.600;7.558;2024-03-02T08:03:13;3.33;;;2.42;;
18947;SDS011;9607;51.600;7.558;2024-03-02T08:05:42;2.97;;;2.08;;
18947;SDS011;9607;51.600;7.558;2024-03-02T08:08:10;3.38;;;2.20;;
18947;SDS011;9607;51.600;7.558;2024-03-02T08:10:37;3.78;;;2.00;;
18947;SDS011;9607;51.600;7.558;2024-03-02T08:13:03;3.60;;;2.97;;
18947;SDS011;9607;51.600;7.558;2024-03-02T08:15:30;2.92;;;2.35;;
18947;SDS011;9607;51.600;7.558;2024-03-02T08:17:57;5.07;;;2.63;;
18947;SDS011;9607;51.600;7.558;2024-03-02T08:20:24;4.47;;;2.65;;
18947;SDS011;9607;51.600;7.558;2024-03-02T08:22:53;3.63;;;2.75;;
18947;SDS011;9607;51.600;7.558;2024-03-02T08:25:21;2.78;;;2.47;;
18947;SDS011;9607;51.600;7.558;2024-03-02T08:27:48;4.57;;;2.60;;
18947;SDS011;9607;51.600;7.558;2024-03-02T08:30:15;3.20;;;2.25;;
18947;SDS011;9607;51.600;7.558;2024-03-02T08:32:43;3.53;;;2.55;;
18947;SDS011;9607;51.600;7.558;2024-03-02T08:35:10;2.58;;;2.03;;
18947;SDS011;9607;51.600;7.558;2024-03-02T08:37:37;2.40;;;2.13;;
18947;SDS011;9607;51.600;7.558;2024-03-02T08:40:07;2.75;;;2.20;;
18947;SDS011;9607;51.600;7.558;2024-03-02T08:42:35;3.05;;;2.17;;
18947;SDS011;9607;51.600;7.558;2024-03-02T08:45:02;3.47;;;2.72;;
18947;SDS011;9607;51.600;7.558;2024-03-02T08:47:31;3.90;;;2.15;;
18947;SDS011;9607;51.600;7.558;2024-03-02T08:49:57;4.50;;;2.60;;
18947;SDS011;9607;51.600;7.558;2024-03-02T08:52:25;3.30;;;2.70;;
18947;SDS011;9607;51.600;7.558;2024-03-02T08:54:52;3.05;;;2.30;;
18947;SDS011;9607;51.600;7.558;2024-03-02T08:57:21;4.57;;;2.42;;
18947;SDS011;9607;51.600;7.558;2024-03-02T08:59:48;2.75;;;2.03;;
18947;SDS011;9607;51.600;7.558;2024-03-02T09:02:15;3.20;;;2.30;;
18947;SDS011;9607;51.600;7.558;2024-03-02T09:04:42;3.50;;;2.38;;
18947;SDS011;9607;51.600;7.558;2024-03-02T09:07:08;3.58;;;2.80;;
18947;SDS011;9607;51.600;7.558;2024-03-02T09:09:35;2.35;;;2.10;;
18947;SDS011;9607;51.600;7.558;2024-03-02T09:12:03;3.58;;;2.25;;
18947;SDS011;9607;51.600;7.558;2024-03-02T09:14:32;2.60;;;2.40;;
18947;SDS011;9607;51.600;7.558;2024-03-02T09:16:59;3.10;;;2.53;;
18947;SDS011;9607;51.600;7.558;2024-03-02T09:19:27;3.70;;;2.30;;
18947;SDS011;9607;51.600;7.558;2024-03-02T09:21:54;2.55;;;2.15;;
18947;SDS011;9607;51.600;7.558;2024-03-02T09:24:21;2.00;;;1.60;;
18947;SDS011;9607;51.600;7.558;2024-03-02T09:26:48;3.38;;;1.92;;
18947;SDS011;9607;51.600;7.558;2024-03-02T09:29:14;3.45;;;2.20;;
18947;SDS011;9607;51.600;7.558;2024-03-02T09:31:43;3.03;;;1.65;;
18947;SDS011;9607;51.600;7.558;2024-03-02T09:34:10;2.25;;;1.60;;
18947;SDS011;9607;51.600;7.558;2024-03-02T09:36:37;3.08;;;1.80;;
18947;SDS011;9607;51.600;7.558;2024-03-02T09:39:04;2.47;;;1.50;;
18947;SDS011;9607;51.600;7.558;2024-03-02T09:41:31;2.13;;;1.60;;
18947;SDS011;9607;51.600;7.558;2024-03-02T09:43:59;2.85;;;1.60;;
18947;SDS011;9607;51.600;7.558;2024-03-02T09:46:26;2.03;;;1.48;;
18947;SDS011;9607;51.600;7.558;2024-03-02T09:48:55;2.17;;;1.58;;
18947;SDS011;9607;51.600;7.558;2024-03-02T09:51:22;3.47;;;1.83;;
18947;SDS011;9607;51.600;7.558;2024-03-02T09:53:49;2.78;;;1.70;;
18947;SDS011;9607;51.600;7.558;2024-03-02T09:56:18;2.10;;;1.50;;
18947;SDS011;9607;51.600;7.558;2024-03-02T09:58:45;2.08;;;1.60;;
18947;SDS011;9607;51.600;7.558;2024-03-02T10:01:13;1.27;;;1.15;;
18947;SDS011;9607;51.600;7.558;2024-03-02T10:03:41;3.05;;;1.30;;
18947;SDS011;9607;51.600;7.558;2024-03-02T10:06:20;3.17;;;1.70;;
18947;SDS011;9607;51.600;7.558;2024-03-02T10:08:47;1.65;;;1.30;;
18947;SDS011;9607;51.600;7.558;2024-03-02T10:11:27;1.45;;;0.85;;
18947;SDS011;9607;51.600;7.558;2024-03-02T10:14:14;2.40;;;1.10;;
18947;SDS011;9607;51.600;7.558;2024-03-02T10:16:41;1.40;;;0.73;;
18947;SDS011;9607;51.600;7.558;2024-03-02T10:19:15;1.02;;;0.65;;
18947;SDS011;9607;51.600;7.558;2024-03-02T10:21:44;1.50;;;0.77;;
18947;SDS011;9607;51.600;7.558;2024-03-02T10:24:11;1.60;;;0.75;;
18947;SDS011;9607;51.600;7.558;2024-03-02T10:26:38;1.70;;;0.80;;
18947;SDS011;9607;51.600;7.558;2024-03-02T10:29:06;1.25;;;0.77;;
18947;SDS011;9607;51.600;7.558;2024-03-02T10:31:35;1.15;;;0.60;;
18947;SDS011;9607;51.600;7.558;2024-03-02T10:34:03;1.30;;;0.63;;
18947;SDS011;9607;51.600;7.558;2024-03-02T10:36:31;2.10;;;0.60;;
18947;SDS011;9607;51.600;7.558;2024-03-02T10:39:01;0.60;;;0.57;;
18947;SDS011;9607;51.600;7.558;2024-03-02T10:41:29;0.50;;;0.50;;
18947;SDS011;9607;51.600;7.558;2024-03-02T10:44:00;1.63;;;0.77;;
18947;SDS011;9607;51.600;7.558;2024-03-02T10:46:29;0.82;;;0.50;;
18947;SDS011;9607;51.600;7.558;2024-03-02T10:48:57;0.70;;;0.50;;
18947;SDS011;9607;51.600;7.558;2024-03-02T10:51:25;1.05;;;0.60;;
18947;SDS011;9607;51.600;7.558;2024-03-02T10:53:56;0.85;;;0.60;;
18947;SDS011;9607;51.600;7.558;2024-03-02T10:56:27;1.27;;;0.50;;
18947;SDS011;9607;51.600;7.558;2024-03-02T10:58:55;1.10;;;0.55;;
18947;SDS011;9607;51.600;7.558;2024-03-02T11:01:27;2.78;;;0.90;;
18947;SDS011;9607;51.600;7.558;2024-03-02T11:03:57;2.97;;;0.95;;
18947;SDS011;9607;51.600;7.558;2024-03-02T11:06:24;0.52;;;0.50;;
18947;SDS011;9607;51.600;7.558;2024-03-02T11:08:53;0.57;;;0.55;;
18947;SDS011;9607;51.600;7.558;2024-03-02T11:11:27;0.95;;;0.57;;
18947;SDS011;9607;51.600;7.558;2024-03-02T11:14:00;1.38;;;0.77;;
18947;SDS011;9607;51.600;7.558;2024-03-02T11:16:35;1.50;;;0.73;;
18947;SDS011;9607;51.600;7.558;2024-03-02T11:19:04;0.70;;;0.60;;
18947;SDS011;9607;51.600;7.558;2024-03-02T11:24:13;0.85;;;0.50;;
18947;SDS011;9607;51.600;7.558;2024-03-02T11:27:11;0.77;;;0.40;;
18947;SDS011;9607;51.600;7.558;2024-03-02T11:29:46;2.42;;;0.57;;
18947;SDS011;9607;51.600;7.558;2024-03-02T11:32:26;0.55;;;0.55;;
18947;SDS011;9607;51.600;7.558;2024-03-02T11:34:52;0.57;;;0.50;;
18947;SDS011;9607;51.600;7.558;2024-03-02T11:37:20;0.55;;;0.47;;
18947;SDS011;9607;51.600;7.558;2024-03-02T11:39:48;1.33;;;0.70;;
18947;SDS011;9607;51.600;7.558;2024-03-02T11:42:17;0.80;;;0.60;;
18947;SDS011;9607;51.600;7.558;2024-03-02T11:44:45;1.35;;;0.77;;
18947;SDS011;9607;51.600;7.558;2024-03-02T11:47:14;0.40;;;0.40;;
18947;SDS011;9607;51.600;7.558;2024-03-02T11:49:42;0.85;;;0.80;;
18947;SDS011;9607;51.600;7.558;2024-03-02T11:52:10;0.60;;;0.43;;
18947;SDS011;9607;51.600;7.558;2024-03-02T11:54:42;2.20;;;0.60;;
18947;SDS011;9607;51.600;7.558;2024-03-02T11:57:13;2.05;;;0.88;;
18947;SDS011;9607;51.600;7.558;2024-03-02T11:59:53;0.80;;;0.50;;
18947;SDS011;9607;51.600;7.558;2024-03-02T12:02:25;1.35;;;0.55;;
18947;SDS011;9607;51.600;7.558;2024-03-02T12:04:53;1.38;;;0.82;;
18947;SDS011;9607;51.600;7.558;2024-03-02T12:15:40;1.17;;;0.60;;
18947;SDS011;9607;51.600;7.558;2024-03-02T12:20:49;0.77;;;0.32;;
18947;SDS011;9607;51.600;7.558;2024-03-02T12:23:21;1.35;;;0.75;;
18947;SDS011;9607;51.600;7.558;2024-03-02T12:31:49;1.08;;;0.57;;
18947;SDS011;9607;51.600;7.558;2024-03-02T12:34:24;0.40;;;0.40;;
18947;SDS011;9607;51.600;7.558;2024-03-02T12:36:52;2.35;;;1.10;;
18947;SDS011;9607;51.600;7.558;2024-03-02T12:39:19;1.17;;;0.60;;
18947;SDS011;9607;51.600;7.558;2024-03-02T12:41:48;1.35;;;0.47;;
18947;SDS011;9607;51.600;7.558;2024-03-02T12:44:16;0.63;;;0.55;;
18947;SDS011;9607;51.600;7.558;2024-03-02T12:46:43;0.57;;;0.38;;
18947;SDS011;9607;51.600;7.558;2024-03-02T12:49:11;0.70;;;0.50;;
18947;SDS011;9607;51.600;7.558;2024-03-02T12:51:41;1.60;;;0.60;;
18947;SDS011;9607;51.600;7.558;2024-03-02T12:54:09;0.65;;;0.50;;
18947;SDS011;9607;51.600;7.558;2024-03-02T12:56:36;0.82;;;0.52;;
18947;SDS011;9607;51.600;7.558;2024-03-02T12:59:04;0.55;;;0.50;;
18947;SDS011;9607;51.600;7.558;2024-03-02T13:01:32;0.43;;;0.43;;
18947;SDS011;9607;51.600;7.558;2024-03-02T13:03:59;1.63;;;0.50;;
18947;SDS011;9607;51.600;7.558;2024-03-02T13:06:27;1.30;;;0.68;;
18947;SDS011;9607;51.600;7.558;2024-03-02T13:08:54;0.93;;;0.50;;
18947;SDS011;9607;51.600;7.558;2024-03-02T13:11:22;0.82;;;0.30;;
18947;SDS011;9607;51.600;7.558;2024-03-02T13:13:49;0.52;;;0.40;;
18947;SDS011;9607;51.600;7.558;2024-03-02T13:16:16;0.73;;;0.50;;
18947;SDS011;9607;51.600;7.558;2024-03-02T13:18:45;1.02;;;0.40;;
18947;SDS011;9607;51.600;7.558;2024-03-02T13:21:12;0.40;;;0.40;;
18947;SDS011;9607;51.600;7.558;2024-03-02T13:23:40;0.50;;;0.40;;
18947;SDS011;9607;51.600;7.558;2024-03-02T13:26:07;1.75;;;0.50;;
18947;SDS011;9607;51.600;7.558;2024-03-02T13:28:35;0.70;;;0.60;;
18947;SDS011;9607;51.600;7.558;2024-03-02T13:31:03;1.10;;;0.70;;
18947;SDS011;9607;51.600;7.558;2024-03-02T13:33:30;0.50;;;0.40;;
18947;SDS011;9607;51.600;7.558;2024-03-02T13:35:58;0.90;;;0.47;;
18947;SDS011;9607;51.600;7.558;2024-03-02T13:38:24;1.40;;;0.45;;
18947;SDS011;9607;51.600;7.558;2024-03-02T13:40:53;0.52;;;0.47;;
18947;SDS011;9607;51.600;7.558;2024-03-02T13:43:20;0.88;;;0.70;;
18947;SDS011;9607;51.600;7.558;2024-03-02T13:45:50;0.40;;;0.40;;
18947;SDS011;9607;51.600;7.558;2024-03-02T13:48:18;0.35;;;0.30;;
18947;SDS011;9607;51.600;7.558;2024-03-02T13:50:46;0.40;;;0.40;;
18947;SDS011;9607;51.600;7.558;2024-03-02T13:53:13;0.95;;;0.50;;
18947;SDS011;9607;51.600;7.558;2024-03-02T13:55:39;0.45;;;0.45;;
18947;SDS011;9607;51.600;7.558;2024-03-02T13:58:08;0.82;;;0.63;;
18947;SDS011;9607;51.600;7.558;2024-03-02T14:00:35;0.90;;;0.43;;
18947;SDS011;9607;51.600;7.558;2024-03-02T14:03:04;0.93;;;0.52;;
18947;SDS011;9607;51.600;7.558;2024-03-02T14:05:32;0.50;;;0.50;;
18947;SDS011;9607;51.600;7.558;2024-03-02T14:07:59;0.63;;;0.50;;
18947;SDS011;9607;51.600;7.558;2024-03-02T14:10:26;1.02;;;0.60;;
18947;SDS011;9607;51.600;7.558;2024-03-02T14:12:54;2.22;;;0.55;;
18947;SDS011;9607;51.600;7.558;2024-03-02T14:15:23;0.50;;;0.50;;
18947;SDS011;9607;51.600;7.558;2024-03-02T14:17:50;1.52;;;0.50;;
18947;SDS011;9607;51.600;7.558;2024-03-02T14:20:17;0.55;;;0.50;;
18947;SDS011;9607;51.600;7.558;2024-03-02T14:22:47;1.40;;;0.63;;
18947;SDS011;9607;51.600;7.558;2024-03-02T14:25:14;0.40;;;0.40;;
18947;SDS011;9607;51.600;7.558;2024-03-02T14:27:41;0.40;;;0.40;;
18947;SDS011;9607;51.600;7.558;2024-03-02T14:30:08;0.32;;;0.32;;
18947;SDS011;9607;51.600;7.558;2024-03-02T14:32:37;0.55;;;0.30;;
18947;SDS011;9607;51.600;7.558;2024-03-02T14:35:04;0.80;;;0.50;;
18947;SDS011;9607;51.600;7.558;2024-03-02T14:37:34;0.50;;;0.50;;
18947;SDS011;9607;51.600;7.558;2024-03-02T14:40:03;0.70;;;0.57;;
18947;SDS011;9607;51.600;7.558;2024-03-02T14:42:34;0.70;;;0.50;;
18947;SDS011;9607;51.600;7.558;2024-03-02T14:45:02;0.60;;;0.60;;
18947;SDS011;9607;51.600;7.558;2024-03-02T14:47:30;0.47;;;0.45;;
18947;SDS011;9607;51.600;7.558;2024-03-02T14:49:59;1.48;;;0.73;;
18947;SDS011;9607;51.600;7.558;2024-03-02T14:52:30;1.00;;;0.55;;
18947;SDS011;9607;51.600;7.558;2024-03-02T14:54:56;0.60;;;0.60;;
18947;SDS011;9607;51.600;7.558;2024-03-02T14:57:23;1.00;;;0.60;;
18947;SDS011;9607;51.600;7.558;2024-03-02T14:59:50;0.75;;;0.57;;
18947;SDS011;9607;51.600;7.558;2024-03-02T15:02:17;0.60;;;0.50;;
18947;SDS011;9607;51.600;7.558;2024-03-02T15:04:43;0.75;;;0.60;;
18947;SDS011;9607;51.600;7.558;2024-03-02T15:07:14;0.75;;;0.60;;
18947;SDS011;9607;51.600;7.558;2024-03-02T15:09:41;1.35;;;0.70;;
18947;SDS011;9607;51.600;7.558;2024-03-02T15:12:08;1.00;;;0.70;;
18947;SDS011;9607;51.600;7.558;2024-03-02T15:14:39;0.50;;;0.50;;
18947;SDS011;9607;51.600;7.558;2024-03-02T15:19:49;0.38;;;0.38;;
18947;SDS011;9607;51.600;7.558;2024-03-02T15:22:28;0.73;;;0.60;;
18947;SDS011;9607;51.600;7.558;2024-03-02T15:24:55;0.80;;;0.70;;
18947;SDS011;9607;51.600;7.558;2024-03-02T15:27:23;0.73;;;0.63;;
18947;SDS011;9607;51.600;7.558;2024-03-02T15:29:52;0.60;;;0.60;;